sensor_id;sensor_type;location;lat;lon;timestamp;pressure;altitude;pressure_sealevel;temperature;humidity
7264;BME280;3673;52.480;13.348;2024-03-02T00:01:15;100195.09;;;14.35;57.05
7264;BME280;3673;52.480;13.348;2024-03-02T00:03:42;100182.47;;;14.50;57.02
7264;BME280;3673;52.480;13.348;2024-03-02T00:06:10;100176.97;;;14.59;56.97
7264;BME280;3673;52.480;13.348;2024-03-02T00:08:37;100182.97;;;14.28;58.19
7264;BME280;3673;52.480;13.348;2024-03-02T00:11:04;100184.31;;;14.46;57.69
7264;BME280;3673;52.480;13.348;2024-03-02T00:13:32;100178.97;;;14.49;57.46
7264;BME280;3673;52.480;13.348;2024-03-02T00:16:00;100192.22;;;14.46;57.82
7264;BME280;3673;52.480;13.348;2024-03-02T00:18:32;100191.25;;;14.49;57.63
7264;BME280;3673;52.480;13.348;2024-03-02T00:20:59;100181.69;;;14.46;58.11
7264;BME280;3673;52.480;13.348;2024-03-02T00:23:29;100165.63;;;14.55;57.78
7264;BME280;3673;52.480;13.348;2024-03-02T00:25:56;100172.44;;;14.28;58.14
7264;BME280;3673;52.480;13.348;2024-03-02T00:28:24;100164.28;;;14.40;58.20
7264;BME280;3673;52.480;13.348;2024-03-02T00:31:02;100163.84;;;14.57;57.33
7264;BME280;3673;52.480;13.348;2024-03-02T00:33:32;100172.91;;;14.47;57.89
7264;BME280;3673;52.480;13.348;2024-03-02T00:35:59;100161.59;;;14.43;57.86
7264;BME280;3673;52.480;13.348;2024-03-02T00:38:25;100157.41;;;14.35;58.32
7264;BME280;3673;52.480;13.348;2024-03-02T00:40:53;100162.09;;;14.58;57.60
7264;BME280;3673;52.480;13.348;2024-03-02T00:43:45;100161.09;;;14.26;58.35
7264;BME280;3673;52.480;13.348;2024-03-02T00:46:17;100167.63;;;14.47;57.86
7264;BME280;3673;52.480;13.348;2024-03-02T00:48:52;100159.44;;;14.24;58.40
7264;BME280;3673;52.480;13.348;2024-03-02T00:51:21;100164.94;;;14.13;58.92
7264;BME280;3673;52.480;13.348;2024-03-02T00:53:48;100169.50;;;14.07;58.89
7264;BME280;3673;52.480;13.348;2024-03-02T00:56:16;100166.44;;;14.23;59.07
7264;BME280;3673;52.480;13.348;2024-03-02T00:58:43;100164.91;;;14.50;58.16
7264;BME280;3673;52.480;13.348;2024-03-02T01:01:09;100170.22;;;14.49;58.25
7264;BME280;3673;52.480;13.348;2024-03-02T01:03:38;100169.34;;;14.48;58.26
7264;BME280;3673;52.480;13.348;2024-03-02T01:06:05;100169.41;;;14.47;57.77
7264;BME280;3673;52.480;13.348;2024-03-02T01:08:33;100169.91;;;14.61;58.02
7264;BME280;3673;52.480;13.348;2024-03-02T01:11:00;100160.97;;;14.66;57.50
7264;BME280;3673;52.480;13.348;2024-03-02T01:13:27;100155.16;;;14.54;58.00
7264;BME280;3673;52.480;13.348;2024-03-02T01:15:53;100161.25;;;14.56;58.09
7264;BME280;3673;52.480;13.348;2024-03-02T01:18:20;100151.56;;;14.58;58.33
7264;BME280;3673;52.480;13.348;2024-03-02T01:20:49;100156.69;;;14.62;58.12
7264;BME280;3673;52.480;13.348;2024-03-02T01:23:17;100160.28;;;14.60;58.18
7264;BME280;3673;52.480;13.348;2024-03-02T01:25:45;100154.09;;;14.61;58.42
7264;BME280;3673;52.480;13.348;2024-03-02T01:28:11;100145.06;;;14.71;58.29
7264;BME280;3673;52.480;13.348;2024-03-02T01:30:38;100150.72;;;14.56;58.48
7264;BME280;3673;52.480;13.348;2024-03-02T01:33:05;100146.25;;;14.59;58.72
7264;BME280;3673;52.480;13.348;2024-03-02T01:35:32;100143.59;;;14.59;58.58
7264;BME280;3673;52.480;13.348;2024-03-02T01:38:01;100146.56;;;14.47;59.29
7264;BME280;3673;52.480;13.348;2024-03-02T01:40:28;100140.88;;;14.28;59.53
7264;BME280;3673;52.480;13.348;2024-03-02T01:42:55;100135.44;;;14.37;59.58
7264;BME280;3673;52.480;13.348;2024-03-02T01:45:23;100130.53;;;14.56;59.23
7264;BME280;3673;52.480;13.348;2024-03-02T01:47:50;100130.09;;;14.39;59.40
7264;BME280;3673;52.480;13.348;2024-03-02T01:50:25;100132.47;;;14.50;59.87
7264;BME280;3673;52.480;13.348;2024-03-02T01:52:53;100137.22;;;14.35;60.01
7264;BME280;3673;52.480;13.348;2024-03-02T01:55:21;100118.84;;;14.34;60.16
7264;BME280;3673;52.480;13.348;2024-03-02T01:57:48;100119.72;;;14.33;60.55
7264;BME280;3673;52.480;13.348;2024-03-02T02:00:17;100124.06;;;14.35;60.42
7264;BME280;3673;52.480;13.348;2024-03-02T02:02:44;100114.53;;;14.30;61.05
7264;BME280;3673;52.480;13.348;2024-03-02T02:05:11;100099.56;;;14.32;61.10
7264;BME280;3673;52.480;13.348;2024-03-02T02:07:38;100098.34;;;14.45;60.58
7264;BME280;3673;52.480;13.348;2024-03-02T02:10:05;100114.88;;;14.16;61.08
7264;BME280;3673;52.480;13.348;2024-03-02T02:12:35;100109.34;;;14.27;61.39
7264;BME280;3673;52.480;13.348;2024-03-02T02:15:02;100105.75;;;14.31;61.07
7264;BME280;3673;52.480;13.348;2024-03-02T02:17:29;100099.13;;;14.15;61.75
7264;BME280;3673;52.480;13.348;2024-03-02T02:19:56;100104.22;;;14.55;60.78
7264;BME280;3673;52.480;13.348;2024-03-02T02:22:24;100101.47;;;14.27;61.12
7264;BME280;3673;52.480;13.348;2024-03-02T02:24:51;100096.19;;;14.27;61.45
7264;BME280;3673;52.480;13.348;2024-03-02T02:27:18;100097.06;;;14.27;61.31
7264;BME280;3673;52.480;13.348;2024-03-02T02:29:44;100098.78;;;14.28;61.21
7264;BME280;3673;52.480;13.348;2024-03-02T02:32:11;100097.09;;;14.26;61.66
7264;BME280;3673;52.480;13.348;2024-03-02T02:34:38;100106.25;;;13.76;62.79
7264;BME280;3673;52.480;13.348;2024-03-02T02:37:05;100106.19;;;14.14;62.10
7264;BME280;3673;52.480;13.348;2024-03-02T02:39:33;100106.66;;;14.28;61.98
7264;BME280;3673;52.480;13.348;2024-03-02T02:41:59;100100.63;;;14.25;62.07
7264;BME280;3673;52.480;13.348;2024-03-02T02:44:29;100105.25;;;14.15;62.05
7264;BME280;3673;52.480;13.348;2024-03-02T02:46:56;100107.59;;;14.27;61.83
7264;BME280;3673;52.480;13.348;2024-03-02T02:49:22;100110.13;;;14.30;61.85
7264;BME280;3673;52.480;13.348;2024-03-02T02:51:49;100105.63;;;14.35;61.80
7264;BME280;3673;52.480;13.348;2024-03-02T02:54:16;100114.38;;;14.02;62.73
7264;BME280;3673;52.480;13.348;2024-03-02T02:56:44;100116.38;;;14.26;62.24
7264;BME280;3673;52.480;13.348;2024-03-02T02:59:10;100108.06;;;14.08;63.18
7264;BME280;3673;52.480;13.348;2024-03-02T03:01:37;100114.53;;;13.94;63.44
7264;BME280;3673;52.480;13.348;2024-03-02T03:04:04;100108.41;;;13.96;63.02
7264;BME280;3673;52.480;13.348;2024-03-02T03:06:30;100108.72;;;14.17;63.11
7264;BME280;3673;52.480;13.348;2024-03-02T03:08:57;100119.44;;;14.10;63.14
7264;BME280;3673;52.480;13.348;2024-03-02T03:11:24;100115.34;;;13.98;63.37
7264;BME280;3673;52.480;13.348;2024-03-02T03:13:53;100113.06;;;14.18;63.41
7264;BME280;3673;52.480;13.348;2024-03-02T03:16:20;100104.66;;;14.39;62.87
7264;BME280;3673;52.480;13.348;2024-03-02T03:18:47;100106.03;;;14.20;63.18
7264;BME280;3673;52.480;13.348;2024-03-02T03:21:15;100103.13;;;14.31;62.87
7264;BME280;3673;52.480;13.348;2024-03-02T03:23:42;100107.81;;;14.18;63.44
7264;BME280;3673;52.480;13.348;2024-03-02T03:26:09;100102.75;;;14.11;63.44
7264;BME280;3673;52.480;13.348;2024-03-02T03:28:36;100120.81;;;13.89;64.01
7264;BME280;3673;52.480;13.348;2024-03-02T03:31:04;100110.53;;;14.15;63.79
7264;BME280;3673;52.480;13.348;2024-03-02T03:33:31;100110.16;;;13.60;64.85
7264;BME280;3673;52.480;13.348;2024-03-02T03:35:58;100102.94;;;14.03;64.13
7264;BME280;3673;52.480;13.348;2024-03-02T03:38:25;100102.00;;;14.06;64.40
7264;BME280;3673;52.480;13.348;2024-03-02T03:40:51;100109.22;;;14.31;63.10
7264;BME280;3673;52.480;13.348;2024-03-02T03:43:18;100106.03;;;14.20;63.56
7264;BME280;3673;52.480;13.348;2024-03-02T03:45:45;100093.50;;;14.28;63.71
7264;BME280;3673;52.480;13.348;2024-03-02T03:48:13;100104.03;;;14.28;63.19
7264;BME280;3673;52.480;13.348;2024-03-02T03:50:39;100107.81;;;14.52;62.96
7264;BME280;3673;52.480;13.348;2024-03-02T03:53:07;100098.50;;;14.40;63.23
7264;BME280;3673;52.480;13.348;2024-03-02T03:55:34;100109.50;;;14.55;62.82
7264;BME280;3673;52.480;13.348;2024-03-02T03:58:00;100105.34;;;14.48;62.90
7264;BME280;3673;52.480;13.348;2024-03-02T04:00:27;100103.84;;;14.37;63.32
7264;BME280;3673;52.480;13.348;2024-03-02T04:02:54;100114.38;;;14.37;63.19
7264;BME280;3673;52.480;13.348;2024-03-02T04:05:23;100111.91;;;14.30;63.55
7264;BME280;3673;52.480;13.348;2024-03-02T04:07:50;100115.16;;;14.06;63.94
7264;BME280;3673;52.480;13.348;2024-03-02T04:10:16;100129.03;;;13.75;64.99
7264;BME280;3673;52.480;13.348;2024-03-02T04:12:43;100125.34;;;13.84;65.23
7264;BME280;3673;52.480;13.348;2024-03-02T04:15:10;100127.44;;;13.70;65.65
7264;BME280;3673;52.480;13.348;2024-03-02T04:17:37;100124.34;;;13.88;65.36
7264;BME280;3673;52.480;13.348;2024-03-02T04:20:05;100125.69;;;13.70;65.67
7264;BME280;3673;52.480;13.348;2024-03-02T04:22:34;100129.50;;;13.92;65.47
7264;BME280;3673;52.480;13.348;2024-03-02T04:25:02;100132.63;;;13.71;65.83
7264;BME280;3673;52.480;13.348;2024-03-02T04:27:30;100129.28;;;13.65;66.16
7264;BME280;3673;52.480;13.348;2024-03-02T04:29:57;100128.78;;;13.86;65.60
7264;BME280;3673;52.480;13.348;2024-03-02T04:32:26;100128.78;;;13.87;65.14
7264;BME280;3673;52.480;13.348;2024-03-02T04:34:53;100131.50;;;13.83;65.58
7264;BME280;3673;52.480;13.348;2024-03-02T04:37:20;100129.50;;;13.94;64.80
7264;BME280;3673;52.480;13.348;2024-03-02T04:39:48;100130.28;;;13.98;65.09
7264;BME280;3673;52.480;13.348;2024-03-02T04:42:15;100137.16;;;14.02;64.77
7264;BME280;3673;52.480;13.348;2024-03-02T04:44:42;100143.28;;;14.02;64.74
7264;BME280;3673;52.480;13.348;2024-03-02T04:47:08;100140.75;;;13.99;64.97
7264;BME280;3673;52.480;13.348;2024-03-02T04:49:35;100149.00;;;13.84;64.66
7264;BME280;3673;52.480;13.348;2024-03-02T04:52:02;100145.22;;;13.96;65.07
7264;BME280;3673;52.480;13.348;2024-03-02T04:54:29;100150.31;;;13.65;66.22
7264;BME280;3673;52.480;13.348;2024-03-02T04:56:57;100155.47;;;13.69;66.00
7264;BME280;3673;52.480;13.348;2024-03-02T04:59:24;100157.16;;;13.72;65.63
7264;BME280;3673;52.480;13.348;2024-03-02T05:01:50;100158.59;;;13.85;65.56
7264;BME280;3673;52.480;13.348;2024-03-02T05:04:17;100153.31;;;13.86;65.81
7264;BME280;3673;52.480;13.348;2024-03-02T05:06:44;100158.09;;;13.71;66.47
7264;BME280;3673;52.480;13.348;2024-03-02T05:09:16;100155.09;;;13.86;65.63
7264;BME280;3673;52.480;13.348;2024-03-02T05:11:42;100161.47;;;13.76;65.42
7264;BME280;3673;52.480;13.348;2024-03-02T05:14:29;100168.97;;;13.54;66.66
7264;BME280;3673;52.480;13.348;2024-03-02T05:16:56;100174.97;;;13.19;67.31
7264;BME280;3673;52.480;13.348;2024-03-02T05:19:23;100178.88;;;13.41;66.73
7264;BME280;3673;52.480;13.348;2024-03-02T05:21:50;100173.38;;;13.52;67.02
7264;BME280;3673;52.480;13.348;2024-03-02T05:24:17;100178.81;;;13.83;66.43
7264;BME280;3673;52.480;13.348;2024-03-02T05:26:44;100187.00;;;13.71;65.58
7264;BME280;3673;52.480;13.348;2024-03-02T05:29:11;100187.31;;;13.56;66.60
7264;BME280;3673;52.480;13.348;2024-03-02T05:31:39;100188.44;;;13.46;66.86
7264;BME280;3673;52.480;13.348;2024-03-02T05:34:06;100193.16;;;13.68;66.68
7264;BME280;3673;52.480;13.348;2024-03-02T05:36:33;100188.84;;;13.66;66.00
7264;BME280;3673;52.480;13.348;2024-03-02T05:38:59;100192.84;;;13.83;65.97
7264;BME280;3673;52.480;13.348;2024-03-02T05:41:26;100189.13;;;13.54;66.58
7264;BME280;3673;52.480;13.348;2024-03-02T05:43:53;100190.53;;;13.68;66.21
7264;BME280;3673;52.480;13.348;2024-03-02T05:46:20;100197.06;;;13.90;65.51
7264;BME280;3673;52.480;13.348;2024-03-02T05:48:49;100197.78;;;13.59;66.17
7264;BME280;3673;52.480;13.348;2024-03-02T05:51:15;100203.81;;;13.64;65.96
7264;BME280;3673;52.480;13.348;2024-03-02T05:53:42;100205.78;;;13.11;67.28
7264;BME280;3673;52.480;13.348;2024-03-02T05:56:09;100210.00;;;13.18;67.63
7264;BME280;3673;52.480;13.348;2024-03-02T05:58:35;100211.66;;;13.24;67.44
7264;BME280;3673;52.480;13.348;2024-03-02T06:01:23;100203.19;;;13.08;67.57
7264;BME280;3673;52.480;13.348;2024-03-02T06:03:55;100203.47;;;13.39;66.63
7264;BME280;3673;52.480;13.348;2024-03-02T06:06:22;100220.63;;;13.14;67.16
7264;BME280;3673;52.480;13.348;2024-03-02T06:08:49;100213.63;;;13.13;66.80
7264;BME280;3673;52.480;13.348;2024-03-02T06:11:16;100218.16;;;13.03;67.45
7264;BME280;3673;52.480;13.348;2024-03-02T06:13:43;100216.59;;;13.39;66.52
7264;BME280;3673;52.480;13.348;2024-03-02T06:16:10;100218.56;;;13.29;66.14
7264;BME280;3673;52.480;13.348;2024-03-02T06:18:36;100212.97;;;13.45;66.26
7264;BME280;3673;52.480;13.348;2024-03-02T06:21:05;100201.63;;;13.43;66.23
7264;BME280;3673;52.480;13.348;2024-03-02T06:23:31;100209.25;;;13.13;66.57
7264;BME280;3673;52.480;13.348;2024-03-02T06:25:58;100210.63;;;13.31;66.25
7264;BME280;3673;52.480;13.348;2024-03-02T06:28:25;100200.31;;;13.22;65.50
7264;BME280;3673;52.480;13.348;2024-03-02T06:30:52;100211.94;;;13.52;65.71
7264;BME280;3673;52.480;13.348;2024-03-02T06:33:19;100204.34;;;13.38;65.81
7264;BME280;3673;52.480;13.348;2024-03-02T06:35:46;100209.38;;;13.49;65.56
7264;BME280;3673;52.480;13.348;2024-03-02T06:38:14;100208.63;;;13.83;64.90
7264;BME280;3673;52.480;13.348;2024-03-02T06:40:41;100219.69;;;13.98;64.29
7264;BME280;3673;52.480;13.348;2024-03-02T06:43:08;100213.63;;;13.94;63.76
7264;BME280;3673;52.480;13.348;2024-03-02T06:45:35;100217.31;;;13.85;64.53
7264;BME280;3673;52.480;13.348;2024-03-02T06:48:01;100220.97;;;13.80;64.53
7264;BME280;3673;52.480;13.348;2024-03-02T06:50:28;100226.16;;;13.83;64.65
7264;BME280;3673;52.480;13.348;2024-03-02T06:52:55;100230.16;;;13.61;64.94
7264;BME280;3673;52.480;13.348;2024-03-02T06:55:24;100230.19;;;13.59;65.27
7264;BME280;3673;52.480;13.348;2024-03-02T06:57:51;100230.84;;;13.69;64.54
7264;BME280;3673;52.480;13.348;2024-03-02T07:00:19;100232.34;;;13.80;64.78
7264;BME280;3673;52.480;13.348;2024-03-02T07:02:46;100232.53;;;13.71;64.14
7264;BME280;3673;52.480;13.348;2024-03-02T07:05:13;100228.72;;;13.45;64.75
7264;BME280;3673;52.480;13.348;2024-03-02T07:07:40;100244.00;;;13.69;64.76
7264;BME280;3673;52.480;13.348;2024-03-02T07:10:07;100246.03;;;13.55;64.61
7264;BME280;3673;52.480;13.348;2024-03-02T07:12:35;100244.94;;;13.66;64.83
7264;BME280;3673;52.480;13.348;2024-03-02T07:15:03;100244.75;;;13.34;64.96
7264;BME280;3673;52.480;13.348;2024-03-02T07:18:03;100244.50;;;13.45;65.22
7264;BME280;3673;52.480;13.348;2024-03-02T07:20:29;100237.84;;;13.68;64.49
7264;BME280;3673;52.480;13.348;2024-03-02T07:22:56;100239.34;;;13.40;65.29
7264;BME280;3673;52.480;13.348;2024-03-02T07:25:23;100243.31;;;13.59;65.00
7264;BME280;3673;52.480;13.348;2024-03-02T07:27:51;100248.44;;;13.65;64.80
7264;BME280;3673;52.480;13.348;2024-03-02T07:30:18;100254.41;;;13.73;64.28
7264;BME280;3673;52.480;13.348;2024-03-02T07:32:45;100261.34;;;13.77;64.41
7264;BME280;3673;52.480;13.348;2024-03-02T07:35:12;100261.47;;;13.28;65.08
7264;BME280;3673;52.480;13.348;2024-03-02T07:37:40;100261.06;;;13.48;65.35
7264;BME280;3673;52.480;13.348;2024-03-02T07:40:09;100267.50;;;13.75;64.23
7264;BME280;3673;52.480;13.348;2024-03-02T07:42:37;100271.78;;;13.80;63.74
7264;BME280;3673;52.480;13.348;2024-03-02T07:45:07;100279.34;;;13.96;63.62
7264;BME280;3673;52.480;13.348;2024-03-02T07:47:34;100277.50;;;13.59;64.65
7264;BME280;3673;52.480;13.348;2024-03-02T07:50:01;100281.38;;;13.83;63.83
7264;BME280;3673;52.480;13.348;2024-03-02T07:52:27;100296.38;;;13.78;63.96
7264;BME280;3673;52.480;13.348;2024-03-02T07:54:54;100289.56;;;13.68;63.79
7264;BME280;3673;52.480;13.348;2024-03-02T07:57:21;100297.81;;;13.91;63.52
7264;BME280;3673;52.480;13.348;2024-03-02T07:59:48;100295.16;;;13.53;64.51
7264;BME280;3673;52.480;13.348;2024-03-02T08:02:16;100299.31;;;13.63;63.74
7264;BME280;3673;52.480;13.348;2024-03-02T08:04:43;100305.53;;;13.59;63.95
7264;BME280;3673;52.480;13.348;2024-03-02T08:07:11;100296.28;;;13.82;63.63
7264;BME280;3673;52.480;13.348;2024-03-02T08:09:38;100311.31;;;13.33;64.26
7264;BME280;3673;52.480;13.348;2024-03-02T08:12:05;100305.91;;;13.83;63.63
7264;BME280;3673;52.480;13.348;2024-03-02T08:14:32;100303.28;;;13.83;63.19
7264;BME280;3673;52.480;13.348;2024-03-02T08:16:58;100310.66;;;13.65;63.48
7264;BME280;3673;52.480;13.348;2024-03-02T08:19:28;100311.34;;;13.74;62.93
7264;BME280;3673;52.480;13.348;2024-03-02T08:21:55;100314.22;;;13.62;63.49
7264;BME280;3673;52.480;13.348;2024-03-02T08:24:22;100310.56;;;13.71;63.66
7264;BME280;3673;52.480;13.348;2024-03-02T08:26:49;100310.72;;;13.62;63.90
7264;BME280;3673;52.480;13.348;2024-03-02T08:29:15;100317.97;;;13.93;63.68
7264;BME280;3673;52.480;13.348;2024-03-02T08:31:42;100318.13;;;14.24;62.40
7264;BME280;3673;52.480;13.348;2024-03-02T08:34:09;100315.06;;;14.06;62.41
7264;BME280;3673;52.480;13.348;2024-03-02T08:36:37;100312.72;;;13.92;62.65
7264;BME280;3673;52.480;13.348;2024-03-02T08:39:04;100322.63;;;14.21;62.23
7264;BME280;3673;52.480;13.348;2024-03-02T08:41:33;100321.03;;;14.14;62.09
7264;BME280;3673;52.480;13.348;2024-03-02T08:44:00;100316.13;;;13.97;62.94
7264;BME280;3673;52.480;13.348;2024-03-02T08:46:27;100310.75;;;14.02;62.36
7264;BME280;3673;52.480;13.348;2024-03-02T08:48:54;100323.63;;;13.74;62.81
7264;BME280;3673;52.480;13.348;2024-03-02T08:51:20;100330.91;;;14.01;62.43
7264;BME280;3673;52.480;13.348;2024-03-02T08:53:49;100325.56;;;14.07;62.42
7264;BME280;3673;52.480;13.348;2024-03-02T08:56:16;100333.47;;;14.06;62.27
7264;BME280;3673;52.480;13.348;2024-03-02T08:58:43;100320.59;;;13.92;62.48
7264;BME280;3673;52.480;13.348;2024-03-02T09:01:10;100323.22;;;13.93;62.57
7264;BME280;3673;52.480;13.348;2024-03-02T09:03:37;100326.53;;;14.02;62.12
7264;BME280;3673;52.480;13.348;2024-03-02T09:06:04;100336.81;;;14.14;62.00
7264;BME280;3673;52.480;13.348;2024-03-02T09:08:31;100345.28;;;14.26;61.68
7264;BME280;3673;52.480;13.348;2024-03-02T09:10:59;100340.75;;;13.93;62.79
7264;BME280;3673;52.480;13.348;2024-03-02T09:13:26;100347.69;;;13.97;62.72
7264;BME280;3673;52.480;13.348;2024-03-02T09:15:53;100345.78;;;14.04;62.27
7264;BME280;3673;52.480;13.348;2024-03-02T09:18:19;100351.94;;;14.04;61.93
7264;BME280;3673;52.480;13.348;2024-03-02T09:20:46;100348.19;;;14.14;62.08
7264;BME280;3673;52.480;13.348;2024-03-02T09:23:13;100363.47;;;13.53;63.14
7264;BME280;3673;52.480;13.348;2024-03-02T09:25:40;100362.94;;;13.80;63.87
7264;BME280;3673;52.480;13.348;2024-03-02T09:28:08;100356.97;;;14.13;62.95
7264;BME280;3673;52.480;13.348;2024-03-02T09:30:34;100360.88;;;14.37;62.03
7264;BME280;3673;52.480;13.348;2024-03-02T09:33:01;100356.53;;;13.93;62.83
7264;BME280;3673;52.480;13.348;2024-03-02T09:35:28;100357.81;;;14.15;62.20
7264;BME280;3673;52.480;13.348;2024-03-02T09:37:55;100357.28;;;13.57;63.34
7264;BME280;3673;52.480;13.348;2024-03-02T09:40:22;100352.22;;;13.90;62.71
7264;BME280;3673;52.480;13.348;2024-03-02T09:42:49;100347.34;;;14.14;61.69
7264;BME280;3673;52.480;13.348;2024-03-02T09:45:23;100354.50;;;14.07;61.48
7264;BME280;3673;52.480;13.348;2024-03-02T09:47:50;100357.44;;;14.32;61.00
7264;BME280;3673;52.480;13.348;2024-03-02T09:50:17;100354.19;;;14.21;61.22
7264;BME280;3673;52.480;13.348;2024-03-02T09:52:48;100347.41;;;14.09;61.67
7264;BME280;3673;52.480;13.348;2024-03-02T09:55:16;100344.22;;;14.35;60.48
7264;BME280;3673;52.480;13.348;2024-03-02T09:57:45;100344.06;;;14.42;60.30
7264;BME280;3673;52.480;13.348;2024-03-02T10:00:13;100350.06;;;14.49;60.36
7264;BME280;3673;52.480;13.348;2024-03-02T10:02:42;100350.06;;;14.49;59.69
7264;BME280;3673;52.480;13.348;2024-03-02T10:05:09;100347.91;;;14.65;59.83
7264;BME280;3673;52.480;13.348;2024-03-02T10:07:36;100352.38;;;14.98;58.85
7264;BME280;3673;52.480;13.348;2024-03-02T10:10:13;100345.28;;;14.65;59.05
7264;BME280;3673;52.480;13.348;2024-03-02T10:12:40;100354.59;;;14.79;59.00
7264;BME280;3673;52.480;13.348;2024-03-02T10:15:08;100351.72;;;15.24;58.05
7264;BME280;3673;52.480;13.348;2024-03-02T10:17:35;100354.81;;;15.39;57.57
7264;BME280;3673;52.480;13.348;2024-03-02T10:20:24;100354.00;;;15.37;57.53
7264;BME280;3673;52.480;13.348;2024-03-02T10:22:52;100351.97;;;15.47;57.52
7264;BME280;3673;52.480;13.348;2024-03-02T10:25:31;100349.50;;;14.73;58.82
7264;BME280;3673;52.480;13.348;2024-03-02T10:27:59;100357.03;;;15.22;58.04
7264;BME280;3673;52.480;13.348;2024-03-02T10:30:26;100342.44;;;15.41;56.69
7264;BME280;3673;52.480;13.348;2024-03-02T10:32:54;100348.59;;;15.42;56.82
7264;BME280;3673;52.480;13.348;2024-03-02T10:35:22;100348.91;;;14.96;57.47
7264;BME280;3673;52.480;13.348;2024-03-02T10:37:51;100345.06;;;15.41;56.81
7264;BME280;3673;52.480;13.348;2024-03-02T10:40:19;100346.44;;;15.24;56.20
7264;BME280;3673;52.480;13.348;2024-03-02T10:42:48;100340.88;;;15.34;56.23
7264;BME280;3673;52.480;13.348;2024-03-02T10:45:16;100346.81;;;14.75;57.10
7264;BME280;3673;52.480;13.348;2024-03-02T10:47:43;100344.38;;;15.35;56.23
7264;BME280;3673;52.480;13.348;2024-03-02T10:50:11;100343.59;;;15.31;55.70
7264;BME280;3673;52.480;13.348;2024-03-02T10:52:38;100337.25;;;15.06;56.04
7264;BME280;3673;52.480;13.348;2024-03-02T10:55:08;100335.16;;;15.53;54.81
7264;BME280;3673;52.480;13.348;2024-03-02T10:57:42;100346.91;;;15.39;55.24
7264;BME280;3673;52.480;13.348;2024-03-02T11:00:13;100342.69;;;15.66;54.85
7264;BME280;3673;52.480;13.348;2024-03-02T11:02:48;100344.66;;;15.89;54.66
7264;BME280;3673;52.480;13.348;2024-03-02T11:05:25;100348.56;;;15.76;54.40
7264;BME280;3673;52.480;13.348;2024-03-02T11:07:57;100346.56;;;15.84;54.22
7264;BME280;3673;52.480;13.348;2024-03-02T11:10:25;100345.63;;;16.16;54.16
7264;BME280;3673;52.480;13.348;2024-03-02T11:12:59;100352.03;;;16.36;53.20
7264;BME280;3673;52.480;13.348;2024-03-02T11:15:27;100345.28;;;15.68;54.17
7264;BME280;3673;52.480;13.348;2024-03-02T11:17:55;100343.38;;;15.40;54.53
7264;BME280;3673;52.480;13.348;2024-03-02T11:20:23;100329.88;;;16.13;52.72
7264;BME280;3673;52.480;13.348;2024-03-02T11:22:50;100327.72;;;16.53;51.88
7264;BME280;3673;52.480;13.348;2024-03-02T11:25:26;100327.09;;;16.17;52.01
7264;BME280;3673;52.480;13.348;2024-03-02T11:28:01;100331.63;;;16.14;52.60
7264;BME280;3673;52.480;13.348;2024-03-02T11:30:51;100325.44;;;16.70;51.19
7264;BME280;3673;52.480;13.348;2024-03-02T11:33:25;100331.34;;;16.51;51.32
7264;BME280;3673;52.480;13.348;2024-03-02T11:35:56;100340.00;;;16.56;51.69
7264;BME280;3673;52.480;13.348;2024-03-02T11:38:31;100338.25;;;17.09;50.46
7264;BME280;3673;52.480;13.348;2024-03-02T11:41:01;100332.94;;;16.56;50.76
7264;BME280;3673;52.480;13.348;2024-03-02T11:43:29;100343.03;;;16.14;51.65
7264;BME280;3673;52.480;13.348;2024-03-02T11:46:00;100341.81;;;17.08;50.67
7264;BME280;3673;52.480;13.348;2024-03-02T11:48:30;100343.19;;;17.44;49.89
7264;BME280;3673;52.480;13.348;2024-03-02T11:50:59;100341.44;;;17.43;49.27
7264;BME280;3673;52.480;13.348;2024-03-02T11:53:27;100349.31;;;17.20;49.61
7264;BME280;3673;52.480;13.348;2024-03-02T11:55:55;100342.91;;;17.27;49.32
7264;BME280;3673;52.480;13.348;2024-03-02T11:58:24;100341.91;;;17.31;49.47
7264;BME280;3673;52.480;13.348;2024-03-02T12:00:52;100337.81;;;17.45;49.07
7264;BME280;3673;52.480;13.348;2024-03-02T12:03:21;100337.69;;;16.99;49.97
7264;BME280;3673;52.480;13.348;2024-03-02T12:05:49;100338.38;;;17.30;49.61
7264;BME280;3673;52.480;13.348;2024-03-02T12:08:16;100334.44;;;17.42;49.80
7264;BME280;3673;52.480;13.348;2024-03-02T12:10:44;100344.22;;;17.40;49.77
7264;BME280;3673;52.480;13.348;2024-03-02T12:13:21;100335.25;;;17.44;49.54
7264;BME280;3673;52.480;13.348;2024-03-02T12:15:53;100338.78;;;17.44;49.50
7264;BME280;3673;52.480;13.348;2024-03-02T12:18:20;100329.03;;;17.45;49.50
7264;BME280;3673;52.480;13.348;2024-03-02T12:20:49;100340.47;;;17.45;49.40
7264;BME280;3673;52.480;13.348;2024-03-02T12:23:18;100336.34;;;17.12;50.39
7264;BME280;3673;52.480;13.348;2024-03-02T12:25:49;100331.28;;;17.06;50.46
7264;BME280;3673;52.480;13.348;2024-03-02T12:28:19;100323.97;;;17.14;50.76
7264;BME280;3673;52.480;13.348;2024-03-02T12:30:46;100323.69;;;16.71;51.49
7264;BME280;3673;52.480;13.348;2024-03-02T12:33:15;100321.22;;;17.67;49.71
7264;BME280;3673;52.480;13.348;2024-03-02T12:35:43;100317.50;;;17.47;49.79
7264;BME280;3673;52.480;13.348;2024-03-02T12:38:10;100315.19;;;17.86;48.84
7264;BME280;3673;52.480;13.348;2024-03-02T12:40:37;100308.47;;;18.01;48.58
7264;BME280;3673;52.480;13.348;2024-03-02T12:43:05;100323.41;;;18.02;47.98
7264;BME280;3673;52.480;13.348;2024-03-02T12:45:32;100303.25;;;17.98;48.02
7264;BME280;3673;52.480;13.348;2024-03-02T12:48:00;100313.47;;;17.85;48.14
7264;BME280;3673;52.480;13.348;2024-03-02T12:50:28;100311.44;;;17.92;48.47
7264;BME280;3673;52.480;13.348;2024-03-02T12:52:55;100322.53;;;17.78;48.13
7264;BME280;3673;52.480;13.348;2024-03-02T12:55:23;100324.19;;;17.33;49.76
7264;BME280;3673;52.480;13.348;2024-03-02T12:57:50;100318.72;;;17.87;48.79
7264;BME280;3673;52.480;13.348;2024-03-02T13:00:21;100318.97;;;17.56;49.05
7264;BME280;3673;52.480;13.348;2024-03-02T13:02:49;100313.41;;;18.32;47.88
7264;BME280;3673;52.480;13.348;2024-03-02T13:05:16;100321.16;;;19.01;45.92